sensor_id;sensor_type;location;lat;lon;timestamp;P1;durP1;ratioP1;P2;durP2;ratioP2
8327;SDS011;4201;48.754;8.864;2023-07-13T00:01:36;4.03;;;2.10;;
8327;SDS011;4201;48.754;8.864;2023-07-13T00:04:03;4.87;;;2.10;;
8327;SDS011;4201;48.754;8.864;2023-07-13T00:06:30;8.53;;;2.10;;
8327;SDS011;4201;48.754;8.864;2023-07-13T00:08:59;4.47;;;1.80;;
8327;SDS011;4201;48.754;8.864;2023-07-13T00:11:25;4.13;;;1.90;;
8327;SDS011;4201;48.754;8.864;2023-07-13T00:13:52;11.83;;;2.00;;
8327;SDS011;4201;48.754;8.864;2023-07-13T00:16:18;6.10;;;2.27;;
8327;SDS011;4201;48.754;8.864;2023-07-13T00:18:44;7.10;;;2.00;;
8327;SDS011;4201;48.754;8.864;2023-07-13T00:21:11;5.30;;;2.00;;
8327;SDS011;4201;48.754;8.864;2023-07-13T00:23:38;6.10;;;2.03;;
8327;SDS011;4201;48.754;8.864;2023-07-13T00:26:08;5.17;;;2.00;;
8327;SDS011;4201;48.754;8.864;2023-07-13T00:28:35;5.07;;;2.20;;
8327;SDS011;4201;48.754;8.864;2023-07-13T00:31:01;6.23;;;2.23;;
8327;SDS011;4201;48.754;8.864;2023-07-13T00:33:28;7.23;;;2.23;;
8327;SDS011;4201;48.754;8.864;2023-07-13T00:35:54;7.97;;;2.30;;
8327;SDS011;4201;48.754;8.864;2023-07-13T00:38:21;12.03;;;1.97;;
8327;SDS011;4201;48.754;8.864;2023-07-13T00:40:47;7.43;;;1.93;;
8327;SDS011;4201;48.754;8.864;2023-07-13T00:43:16;7.33;;;2.10;;
8327;SDS011;4201;48.754;8.864;2023-07-13T00:48:29;6.63;;;1.90;;
8327;SDS011;4201;48.754;8.864;2023-07-13T00:50:56;6.47;;;2.43;;
8327;SDS011;4201;48.754;8.864;2023-07-13T00:53:23;9.83;;;1.90;;
8327;SDS011;4201;48.754;8.864;2023-07-13T00:55:51;3.60;;;1.80;;
8327;SDS011;4201;48.754;8.864;2023-07-13T00:58:18;5.87;;;1.73;;
8327;SDS011;4201;48.754;8.864;2023-07-13T01:00:45;8.90;;;1.90;;
8327;SDS011;4201;48.754;8.864;2023-07-13T01:03:12;6.30;;;1.97;;
8327;SDS011;4201;48.754;8.864;2023-07-13T01:05:39;10.10;;;2.10;;
8327;SDS011;4201;48.754;8.864;2023-07-13T01:08:05;3.23;;;1.60;;
8327;SDS011;4201;48.754;8.864;2023-07-13T01:10:31;8.63;;;2.50;;
8327;SDS011;4201;48.754;8.864;2023-07-13T01:13:03;4.10;;;1.87;;
8327;SDS011;4201;48.754;8.864;2023-07-13T01:15:35;5.40;;;2.00;;
8327;SDS011;4201;48.754;8.864;2023-07-13T01:18:02;9.87;;;2.43;;
8327;SDS011;4201;48.754;8.864;2023-07-13T01:20:29;4.97;;;1.93;;
8327;SDS011;4201;48.754;8.864;2023-07-13T01:22:56;3.90;;;1.83;;
8327;SDS011;4201;48.754;8.864;2023-07-13T01:25:24;8.77;;;2.10;;
8327;SDS011;4201;48.754;8.864;2023-07-13T01:27:51;7.17;;;2.60;;
8327;SDS011;4201;48.754;8.864;2023-07-13T01:30:17;4.53;;;2.00;;
8327;SDS011;4201;48.754;8.864;2023-07-13T01:32:43;5.07;;;2.03;;
8327;SDS011;4201;48.754;8.864;2023-07-13T01:35:09;5.40;;;2.33;;
8327;SDS011;4201;48.754;8.864;2023-07-13T01:37:37;6.40;;;2.13;;
8327;SDS011;4201;48.754;8.864;2023-07-13T01:40:06;5.37;;;2.40;;
8327;SDS011;4201;48.754;8.864;2023-07-13T01:42:33;4.47;;;2.00;;
8327;SDS011;4201;48.754;8.864;2023-07-13T01:44:59;4.43;;;2.20;;
8327;SDS011;4201;48.754;8.864;2023-07-13T01:47:26;9.53;;;2.70;;
8327;SDS011;4201;48.754;8.864;2023-07-13T01:49:52;10.50;;;2.83;;
8327;SDS011;4201;48.754;8.864;2023-07-13T01:52:19;4.80;;;2.23;;
8327;SDS011;4201;48.754;8.864;2023-07-13T01:54:45;5.70;;;2.20;;
8327;SDS011;4201;48.754;8.864;2023-07-13T01:57:13;5.70;;;2.47;;
8327;SDS011;4201;48.754;8.864;2023-07-13T01:59:39;5.03;;;2.10;;
8327;SDS011;4201;48.754;8.864;2023-07-13T02:02:07;3.87;;;2.60;;
8327;SDS011;4201;48.754;8.864;2023-07-13T02:04:34;5.50;;;2.77;;
8327;SDS011;4201;48.754;8.864;2023-07-13T02:07:00;5.50;;;2.13;;
8327;SDS011;4201;48.754;8.864;2023-07-13T02:09:27;4.37;;;2.57;;
8327;SDS011;4201;48.754;8.864;2023-07-13T02:11:53;6.70;;;2.20;;
8327;SDS011;4201;48.754;8.864;2023-07-13T02:14:20;5.43;;;2.37;;
8327;SDS011;4201;48.754;8.864;2023-07-13T02:16:47;6.60;;;2.20;;
8327;SDS011;4201;48.754;8.864;2023-07-13T02:19:13;6.63;;;2.60;;
8327;SDS011;4201;48.754;8.864;2023-07-13T02:21:40;6.77;;;2.40;;
8327;SDS011;4201;48.754;8.864;2023-07-13T02:24:06;6.40;;;1.97;;
8327;SDS011;4201;48.754;8.864;2023-07-13T02:26:32;4.80;;;2.20;;
8327;SDS011;4201;48.754;8.864;2023-07-13T02:28:59;6.83;;;2.50;;
8327;SDS011;4201;48.754;8.864;2023-07-13T02:31:26;3.40;;;1.90;;
8327;SDS011;4201;48.754;8.864;2023-07-13T02:33:53;4.40;;;2.37;;
8327;SDS011;4201;48.754;8.864;2023-07-13T02:36:19;6.93;;;2.50;;
8327;SDS011;4201;48.754;8.864;2023-07-13T02:38:45;6.80;;;2.37;;
8327;SDS011;4201;48.754;8.864;2023-07-13T02:41:11;5.73;;;2.60;;
8327;SDS011;4201;48.754;8.864;2023-07-13T02:43:37;5.43;;;2.23;;
8327;SDS011;4201;48.754;8.864;2023-07-13T02:46:04;8.20;;;2.50;;
8327;SDS011;4201;48.754;8.864;2023-07-13T02:48:33;6.47;;;2.57;;
8327;SDS011;4201;48.754;8.864;2023-07-13T02:51:00;5.63;;;2.57;;
8327;SDS011;4201;48.754;8.864;2023-07-13T02:53:26;6.90;;;2.00;;
8327;SDS011;4201;48.754;8.864;2023-07-13T02:55:52;4.93;;;2.50;;
8327;SDS011;4201;48.754;8.864;2023-07-13T02:58:19;7.40;;;2.70;;
8327;SDS011;4201;48.754;8.864;2023-07-13T03:00:46;8.33;;;2.40;;
8327;SDS011;4201;48.754;8.864;2023-07-13T03:03:13;6.90;;;2.43;;
8327;SDS011;4201;48.754;8.864;2023-07-13T03:05:41;6.50;;;2.60;;
8327;SDS011;4201;48.754;8.864;2023-07-13T03:08:08;4.33;;;2.13;;
8327;SDS011;4201;48.754;8.864;2023-07-13T03:10:34;7.67;;;2.90;;
8327;SDS011;4201;48.754;8.864;2023-07-13T03:13:00;3.87;;;2.13;;
8327;SDS011;4201;48.754;8.864;2023-07-13T03:15:26;6.50;;;2.47;;
8327;SDS011;4201;48.754;8.864;2023-07-13T03:17:53;7.17;;;2.30;;
8327;SDS011;4201;48.754;8.864;2023-07-13T03:20:19;6.17;;;2.80;;
8327;SDS011;4201;48.754;8.864;2023-07-13T03:22:47;10.93;;;2.73;;
8327;SDS011;4201;48.754;8.864;2023-07-13T03:25:13;5.37;;;2.60;;
8327;SDS011;4201;48.754;8.864;2023-07-13T03:27:39;6.30;;;1.83;;
8327;SDS011;4201;48.754;8.864;2023-07-13T03:30:06;4.50;;;2.50;;
8327;SDS011;4201;48.754;8.864;2023-07-13T03:32:33;4.17;;;2.30;;
8327;SDS011;4201;48.754;8.864;2023-07-13T03:34:59;5.23;;;2.57;;
8327;SDS011;4201;48.754;8.864;2023-07-13T03:37:26;7.43;;;2.50;;
8327;SDS011;4201;48.754;8.864;2023-07-13T03:39:53;4.50;;;2.40;;
8327;SDS011;4201;48.754;8.864;2023-07-13T03:42:20;4.43;;;2.20;;
8327;SDS011;4201;48.754;8.864;2023-07-13T03:44:46;5.03;;;2.60;;
8327;SDS011;4201;48.754;8.864;2023-07-13T03:47:17;10.67;;;3.33;;
8327;SDS011;4201;48.754;8.864;2023-07-13T03:49:43;12.47;;;2.50;;
8327;SDS011;4201;48.754;8.864;2023-07-13T03:52:11;5.93;;;2.43;;
8327;SDS011;4201;48.754;8.864;2023-07-13T03:54:37;4.60;;;2.53;;
8327;SDS011;4201;48.754;8.864;2023-07-13T03:57:05;7.30;;;3.33;;
8327;SDS011;4201;48.754;8.864;2023-07-13T03:59:31;4.70;;;2.10;;
8327;SDS011;4201;48.754;8.864;2023-07-13T04:01:58;6.63;;;3.13;;
8327;SDS011;4201;48.754;8.864;2023-07-13T04:04:25;4.97;;;2.50;;
8327;SDS011;4201;48.754;8.864;2023-07-13T04:06:51;3.57;;;2.00;;
8327;SDS011;4201;48.754;8.864;2023-07-13T04:09:18;10.07;;;3.03;;
8327;SDS011;4201;48.754;8.864;2023-07-13T04:11:46;4.00;;;2.33;;
8327;SDS011;4201;48.754;8.864;2023-07-13T04:14:13;6.50;;;3.00;;
8327;SDS011;4201;48.754;8.864;2023-07-13T04:16:40;4.23;;;2.73;;
8327;SDS011;4201;48.754;8.864;2023-07-13T04:19:06;10.83;;;3.27;;
8327;SDS011;4201;48.754;8.864;2023-07-13T04:21:32;6.03;;;3.10;;
8327;SDS011;4201;48.754;8.864;2023-07-13T04:23:58;11.03;;;2.50;;
8327;SDS011;4201;48.754;8.864;2023-07-13T04:26:25;8.13;;;3.60;;
8327;SDS011;4201;48.754;8.864;2023-07-13T04:28:52;5.60;;;3.10;;
8327;SDS011;4201;48.754;8.864;2023-07-13T04:31:19;9.83;;;3.37;;
8327;SDS011;4201;48.754;8.864;2023-07-13T04:33:46;5.20;;;2.80;;
8327;SDS011;4201;48.754;8.864;2023-07-13T04:36:12;6.70;;;3.60;;
8327;SDS011;4201;48.754;8.864;2023-07-13T04:38:38;7.33;;;2.77;;
8327;SDS011;4201;48.754;8.864;2023-07-13T04:41:05;6.10;;;2.70;;
8327;SDS011;4201;48.754;8.864;2023-07-13T04:43:32;7.07;;;3.00;;
8327;SDS011;4201;48.754;8.864;2023-07-13T04:46:02;6.93;;;2.90;;
8327;SDS011;4201;48.754;8.864;2023-07-13T04:48:30;22.13;;;3.50;;
8327;SDS011;4201;48.754;8.864;2023-07-13T04:50:57;8.10;;;3.00;;
8327;SDS011;4201;48.754;8.864;2023-07-13T04:53:24;4.20;;;2.37;;
8327;SDS011;4201;48.754;8.864;2023-07-13T04:55:50;5.80;;;2.37;;
8327;SDS011;4201;48.754;8.864;2023-07-13T04:58:17;10.77;;;3.10;;
8327;SDS011;4201;48.754;8.864;2023-07-13T05:00:43;12.23;;;3.20;;
8327;SDS011;4201;48.754;8.864;2023-07-13T05:03:09;4.07;;;2.43;;
8327;SDS011;4201;48.754;8.864;2023-07-13T05:05:37;10.30;;;3.40;;
8327;SDS011;4201;48.754;8.864;2023-07-13T05:08:03;5.90;;;3.13;;
8327;SDS011;4201;48.754;8.864;2023-07-13T05:10:29;4.30;;;2.50;;
8327;SDS011;4201;48.754;8.864;2023-07-13T05:12:56;4.47;;;2.40;;
8327;SDS011;4201;48.754;8.864;2023-07-13T05:15:22;4.40;;;2.20;;
8327;SDS011;4201;48.754;8.864;2023-07-13T05:17:48;8.90;;;2.50;;
8327;SDS011;4201;48.754;8.864;2023-07-13T05:20:15;8.23;;;2.70;;
8327;SDS011;4201;48.754;8.864;2023-07-13T05:22:43;6.67;;;2.37;;
8327;SDS011;4201;48.754;8.864;2023-07-13T05:25:09;7.97;;;3.83;;
8327;SDS011;4201;48.754;8.864;2023-07-13T05:27:35;10.47;;;2.80;;
8327;SDS011;4201;48.754;8.864;2023-07-13T05:30:02;5.20;;;2.83;;
8327;SDS011;4201;48.754;8.864;2023-07-13T05:32:29;7.80;;;2.80;;
8327;SDS011;4201;48.754;8.864;2023-07-13T05:34:55;4.40;;;2.80;;
8327;SDS011;4201;48.754;8.864;2023-07-13T05:37:21;6.10;;;2.93;;
8327;SDS011;4201;48.754;8.864;2023-07-13T05:39:49;6.27;;;2.83;;
8327;SDS011;4201;48.754;8.864;2023-07-13T05:42:15;4.80;;;2.90;;
8327;SDS011;4201;48.754;8.864;2023-07-13T05:44:41;8.77;;;2.63;;
8327;SDS011;4201;48.754;8.864;2023-07-13T05:47:08;4.57;;;1.90;;
8327;SDS011;4201;48.754;8.864;2023-07-13T05:49:34;5.60;;;2.83;;
8327;SDS011;4201;48.754;8.864;2023-07-13T05:52:00;7.80;;;3.00;;
8327;SDS011;4201;48.754;8.864;2023-07-13T05:54:26;6.00;;;2.70;;
8327;SDS011;4201;48.754;8.864;2023-07-13T05:56:54;5.73;;;2.70;;
8327;SDS011;4201;48.754;8.864;2023-07-13T05:59:20;7.20;;;2.40;;
8327;SDS011;4201;48.754;8.864;2023-07-13T06:01:46;5.10;;;2.10;;
8327;SDS011;4201;48.754;8.864;2023-07-13T06:04:13;5.13;;;2.37;;
8327;SDS011;4201;48.754;8.864;2023-07-13T06:06:39;4.73;;;2.50;;
8327;SDS011;4201;48.754;8.864;2023-07-13T06:09:05;4.43;;;2.23;;
8327;SDS011;4201;48.754;8.864;2023-07-13T06:11:31;7.27;;;2.10;;
8327;SDS011;4201;48.754;8.864;2023-07-13T06:13:59;7.40;;;1.90;;
8327;SDS011;4201;48.754;8.864;2023-07-13T06:16:25;4.27;;;2.00;;
8327;SDS011;4201;48.754;8.864;2023-07-13T06:18:52;5.37;;;1.93;;
8327;SDS011;4201;48.754;8.864;2023-07-13T06:21:19;3.67;;;2.00;;
8327;SDS011;4201;48.754;8.864;2023-07-13T06:23:46;7.73;;;2.33;;
8327;SDS011;4201;48.754;8.864;2023-07-13T06:26:13;4.20;;;2.23;;
8327;SDS011;4201;48.754;8.864;2023-07-13T06:28:40;4.63;;;2.30;;
8327;SDS011;4201;48.754;8.864;2023-07-13T06:31:08;6.87;;;1.80;;
8327;SDS011;4201;48.754;8.864;2023-07-13T06:33:34;5.03;;;2.30;;
8327;SDS011;4201;48.754;8.864;2023-07-13T06:36:01;5.30;;;2.20;;
8327;SDS011;4201;48.754;8.864;2023-07-13T06:38:27;7.20;;;2.20;;
8327;SDS011;4201;48.754;8.864;2023-07-13T06:40:53;6.50;;;2.30;;
8327;SDS011;4201;48.754;8.864;2023-07-13T06:43:20;3.20;;;1.80;;
8327;SDS011;4201;48.754;8.864;2023-07-13T06:45:46;5.07;;;2.07;;
8327;SDS011;4201;48.754;8.864;2023-07-13T06:48:16;5.50;;;2.33;;
8327;SDS011;4201;48.754;8.864;2023-07-13T06:50:42;6.03;;;2.17;;
8327;SDS011;4201;48.754;8.864;2023-07-13T06:53:09;3.20;;;1.87;;
8327;SDS011;4201;48.754;8.864;2023-07-13T06:55:35;6.53;;;2.70;;
8327;SDS011;4201;48.754;8.864;2023-07-13T06:58:02;4.30;;;1.90;;
8327;SDS011;4201;48.754;8.864;2023-07-13T07:00:28;8.30;;;2.20;;
8327;SDS011;4201;48.754;8.864;2023-07-13T07:02:54;9.60;;;3.00;;
8327;SDS011;4201;48.754;8.864;2023-07-13T07:05:22;3.67;;;2.00;;
8327;SDS011;4201;48.754;8.864;2023-07-13T07:07:49;6.07;;;2.40;;
8327;SDS011;4201;48.754;8.864;2023-07-13T07:10:16;5.60;;;2.23;;
8327;SDS011;4201;48.754;8.864;2023-07-13T07:12:42;10.77;;;3.20;;
8327;SDS011;4201;48.754;8.864;2023-07-13T07:15:08;10.33;;;2.30;;
8327;SDS011;4201;48.754;8.864;2023-07-13T07:17:35;5.70;;;2.37;;
8327;SDS011;4201;48.754;8.864;2023-07-13T07:20:01;6.07;;;2.07;;
8327;SDS011;4201;48.754;8.864;2023-07-13T07:22:29;3.53;;;1.73;;
8327;SDS011;4201;48.754;8.864;2023-07-13T07:24:56;8.00;;;1.90;;
8327;SDS011;4201;48.754;8.864;2023-07-13T07:27:22;3.37;;;1.87;;
8327;SDS011;4201;48.754;8.864;2023-07-13T07:29:48;2.80;;;1.60;;
8327;SDS011;4201;48.754;8.864;2023-07-13T07:32:14;7.40;;;2.53;;
8327;SDS011;4201;48.754;8.864;2023-07-13T07:34:41;6.83;;;1.83;;
8327;SDS011;4201;48.754;8.864;2023-07-13T07:37:09;4.33;;;1.40;;
8327;SDS011;4201;48.754;8.864;2023-07-13T07:39:38;4.30;;;1.97;;
8327;SDS011;4201;48.754;8.864;2023-07-13T07:42:04;5.00;;;2.27;;
8327;SDS011;4201;48.754;8.864;2023-07-13T07:44:32;3.77;;;2.00;;
8327;SDS011;4201;48.754;8.864;2023-07-13T07:46:59;5.47;;;1.90;;
8327;SDS011;4201;48.754;8.864;2023-07-13T07:49:25;6.87;;;1.90;;
8327;SDS011;4201;48.754;8.864;2023-07-13T07:51:52;5.37;;;2.20;;
8327;SDS011;4201;48.754;8.864;2023-07-13T07:54:19;2.97;;;1.90;;
8327;SDS011;4201;48.754;8.864;2023-07-13T07:56:46;5.80;;;2.17;;
8327;SDS011;4201;48.754;8.864;2023-07-13T07:59:13;3.90;;;1.87;;
8327;SDS011;4201;48.754;8.864;2023-07-13T08:01:39;5.80;;;2.17;;
8327;SDS011;4201;48.754;8.864;2023-07-13T08:04:05;5.40;;;2.20;;
8327;SDS011;4201;48.754;8.864;2023-07-13T08:06:31;5.00;;;2.60;;
8327;SDS011;4201;48.754;8.864;2023-07-13T08:08:58;3.57;;;2.07;;
8327;SDS011;4201;48.754;8.864;2023-07-13T08:11:24;6.90;;;1.60;;
8327;SDS011;4201;48.754;8.864;2023-07-13T08:13:52;4.23;;;1.70;;
8327;SDS011;4201;48.754;8.864;2023-07-13T08:16:18;5.97;;;2.37;;
8327;SDS011;4201;48.754;8.864;2023-07-13T08:18:44;4.90;;;1.70;;
8327;SDS011;4201;48.754;8.864;2023-07-13T08:21:11;4.53;;;1.80;;
8327;SDS011;4201;48.754;8.864;2023-07-13T08:23:37;4.73;;;1.83;;
8327;SDS011;4201;48.754;8.864;2023-07-13T08:26:04;5.40;;;2.10;;
8327;SDS011;4201;48.754;8.864;2023-07-13T08:28:30;3.83;;;1.73;;
8327;SDS011;4201;48.754;8.864;2023-07-13T08:31:03;3.20;;;1.77;;
8327;SDS011;4201;48.754;8.864;2023-07-13T08:33:30;6.07;;;1.47;;
8327;SDS011;4201;48.754;8.864;2023-07-13T08:35:58;4.03;;;1.47;;
8327;SDS011;4201;48.754;8.864;2023-07-13T08:38:25;6.43;;;2.20;;
8327;SDS011;4201;48.754;8.864;2023-07-13T08:40:51;5.53;;;2.33;;
8327;SDS011;4201;48.754;8.864;2023-07-13T08:43:19;7.33;;;2.17;;
8327;SDS011;4201;48.754;8.864;2023-07-13T08:45:46;3.53;;;1.60;;
8327;SDS011;4201;48.754;8.864;2023-07-13T08:48:16;7.23;;;2.20;;
8327;SDS011;4201;48.754;8.864;2023-07-13T08:50:45;3.80;;;2.03;;
8327;SDS011;4201;48.754;8.864;2023-07-13T08:53:13;4.23;;;1.60;;
8327;SDS011;4201;48.754;8.864;2023-07-13T08:55:41;3.43;;;1.53;;
8327;SDS011;4201;48.754;8.864;2023-07-13T08:58:09;4.20;;;1.90;;
8327;SDS011;4201;48.754;8.864;2023-07-13T09:00:37;4.77;;;2.17;;
8327;SDS011;4201;48.754;8.864;2023-07-13T09:03:08;3.93;;;1.73;;
8327;SDS011;4201;48.754;8.864;2023-07-13T09:05:40;6.23;;;1.73;;
8327;SDS011;4201;48.754;8.864;2023-07-13T09:08:14;14.30;;;2.43;;
8327;SDS011;4201;48.754;8.864;2023-07-13T09:10:44;9.63;;;2.10;;
8327;SDS011;4201;48.754;8.864;2023-07-13T09:13:16;4.10;;;1.70;;
8327;SDS011;4201;48.754;8.864;2023-07-13T09:15:47;6.27;;;1.53;;
8327;SDS011;4201;48.754;8.864;2023-07-13T09:18:16;3.40;;;1.80;;
8327;SDS011;4201;48.754;8.864;2023-07-13T09:20:48;6.03;;;2.00;;
8327;SDS011;4201;48.754;8.864;2023-07-13T09:23:16;6.63;;;1.87;;
8327;SDS011;4201;48.754;8.864;2023-07-13T09:25:44;6.33;;;1.97;;
8327;SDS011;4201;48.754;8.864;2023-07-13T09:28:16;5.33;;;1.80;;
8327;SDS011;4201;48.754;8.864;2023-07-13T09:30:45;4.20;;;1.80;;
8327;SDS011;4201;48.754;8.864;2023-07-13T09:33:16;4.23;;;1.80;;
8327;SDS011;4201;48.754;8.864;2023-07-13T09:35:47;6.27;;;1.50;;
8327;SDS011;4201;48.754;8.864;2023-07-13T09:38:20;5.00;;;2.10;;
8327;SDS011;4201;48.754;8.864;2023-07-13T09:40:55;3.73;;;2.00;;
8327;SDS011;4201;48.754;8.864;2023-07-13T09:43:24;4.60;;;2.13;;
8327;SDS011;4201;48.754;8.864;2023-07-13T09:45:50;4.67;;;1.83;;
8327;SDS011;4201;48.754;8.864;2023-07-13T09:48:16;5.77;;;2.03;;
8327;SDS011;4201;48.754;8.864;2023-07-13T09:50:43;6.17;;;1.80;;
8327;SDS011;4201;48.754;8.864;2023-07-13T09:53:15;6.47;;;1.90;;
8327;SDS011;4201;48.754;8.864;2023-07-13T09:55:42;7.53;;;1.93;;
8327;SDS011;4201;48.754;8.864;2023-07-13T09:58:10;5.87;;;2.07;;
8327;SDS011;4201;48.754;8.864;2023-07-13T10:00:37;4.73;;;2.03;;
8327;SDS011;4201;48.754;8.864;2023-07-13T10:03:04;4.23;;;1.80;;
8327;SDS011;4201;48.754;8.864;2023-07-13T10:05:40;5.53;;;2.00;;
8327;SDS011;4201;48.754;8.864;2023-07-13T10:08:16;4.83;;;1.30;;
8327;SDS011;4201;48.754;8.864;2023-07-13T10:10:43;5.00;;;1.67;;
8327;SDS011;4201;48.754;8.864;2023-07-13T10:13:20;6.50;;;2.00;;
8327;SDS011;4201;48.754;8.864;2023-07-13T10:15:50;5.37;;;1.90;;
8327;SDS011;4201;48.754;8.864;2023-07-13T10:18:16;4.60;;;1.90;;
8327;SDS011;4201;48.754;8.864;2023-07-13T10:20:43;5.40;;;2.20;;
8327;SDS011;4201;48.754;8.864;2023-07-13T10:23:10;4.33;;;2.03;;
8327;SDS011;4201;48.754;8.864;2023-07-13T10:25:42;6.93;;;2.50;;
8327;SDS011;4201;48.754;8.864;2023-07-13T10:28:11;4.10;;;1.70;;
8327;SDS011;4201;48.754;8.864;2023-07-13T10:30:41;7.70;;;1.80;;
8327;SDS011;4201;48.754;8.864;2023-07-13T10:33:10;5.73;;;1.90;;
8327;SDS011;4201;48.754;8.864;2023-07-13T10:35:40;2.60;;;1.53;;
8327;SDS011;4201;48.754;8.864;2023-07-13T10:38:11;5.97;;;1.73;;
8327;SDS011;4201;48.754;8.864;2023-07-13T10:40:39;6.70;;;2.13;;
8327;SDS011;4201;48.754;8.864;2023-07-13T10:43:09;2.97;;;1.50;;
8327;SDS011;4201;48.754;8.864;2023-07-13T10:45:39;8.03;;;1.67;;
8327;SDS011;4201;48.754;8.864;2023-07-13T10:48:06;7.43;;;1.80;;
8327;SDS011;4201;48.754;8.864;2023-07-13T10:50:37;9.83;;;1.93;;
8327;SDS011;4201;48.754;8.864;2023-07-13T10:53:15;3.90;;;1.87;;
8327;SDS011;4201;48.754;8.864;2023-07-13T10:55:54;6.30;;;1.80;;
8327;SDS011;4201;48.754;8.864;2023-07-13T10:58:23;7.97;;;2.13;;
8327;SDS011;4201;48.754;8.864;2023-07-13T11:00:51;46.13;;;37.70;;
8327;SDS011;4201;48.754;8.864;2023-07-13T11:03:20;43.20;;;33.93;;
8327;SDS011;4201;48.754;8.864;2023-07-13T11:05:48;23.33;;;19.87;;
8327;SDS011;4201;48.754;8.864;2023-07-13T11:08:18;33.47;;;29.57;;
8327;SDS011;4201;48.754;8.864;2023-07-13T11:10:47;16.57;;;7.40;;
8327;SDS011;4201;48.754;8.864;2023-07-13T11:15:56;16.80;;;11.53;;
8327;SDS011;4201;48.754;8.864;2023-07-13T11:18:23;10.93;;;4.70;;
8327;SDS011;4201;48.754;8.864;2023-07-13T11:20:50;5.43;;;1.93;;
8327;SDS011;4201;48.754;8.864;2023-07-13T11:23:21;3.93;;;1.80;;
8327;SDS011;4201;48.754;8.864;2023-07-13T11:25:52;3.17;;;1.50;;
8327;SDS011;4201;48.754;8.864;2023-07-13T11:28:32;4.53;;;1.63;;
8327;SDS011;4201;48.754;8.864;2023-07-13T11:31:03;4.90;;;2.10;;
8327;SDS011;4201;48.754;8.864;2023-07-13T11:36:29;4.73;;;1.80;;
8327;SDS011;4201;48.754;8.864;2023-07-13T11:38:58;5.93;;;2.20;;
8327;SDS011;4201;48.754;8.864;2023-07-13T11:41:27;6.03;;;2.07;;
8327;SDS011;4201;48.754;8.864;2023-07-13T11:43:55;4.50;;;2.23;;
8327;SDS011;4201;48.754;8.864;2023-07-13T11:46:24;6.90;;;2.17;;
8327;SDS011;4201;48.754;8.864;2023-07-13T11:48:50;5.63;;;2.30;;
8327;SDS011;4201;48.754;8.864;2023-07-13T11:51:19;5.10;;;2.50;;
8327;SDS011;4201;48.754;8.864;2023-07-13T11:53:47;8.87;;;2.50;;
8327;SDS011;4201;48.754;8.864;2023-07-13T11:56:14;5.60;;;2.03;;
8327;SDS011;4201;48.754;8.864;2023-07-13T11:58:41;5.00;;;2.03;;
8327;SDS011;4201;48.754;8.864;2023-07-13T12:01:10;5.00;;;1.87;;
8327;SDS011;4201;48.754;8.864;2023-07-13T12:03:42;5.80;;;2.50;;
8327;SDS011;4201;48.754;8.864;2023-07-13T12:06:19;8.73;;;2.30;;
8327;SDS011;4201;48.754;8.864;2023-07-13T12:08:47;6.20;;;2.00;;
8327;SDS011;4201;48.754;8.864;2023-07-13T12:11:15;22.13;;;3.50;;
8327;SDS011;4201;48.754;8.864;2023-07-13T12:13:44;6.53;;;2.10;;
8327;SDS011;4201;48.754;8.864;2023-07-13T12:16:12;4.50;;;2.07;;
8327;SDS011;4201;48.754;8.864;2023-07-13T12:18:39;9.63;;;2.33;;
8327;SDS011;4201;48.754;8.864;2023-07-13T12:21:12;9.23;;;2.40;;
8327;SDS011;4201;48.754;8.864;2023-07-13T12:23:42;8.03;;;2.20;;
8327;SDS011;4201;48.754;8.864;2023-07-13T12:26:09;6.43;;;2.63;;
8327;SDS011;4201;48.754;8.864;2023-07-13T12:28:40;8.37;;;2.27;;
8327;SDS011;4201;48.754;8.864;2023-07-13T12:31:18;5.37;;;1.93;;
8327;SDS011;4201;48.754;8.864;2023-07-13T12:33:55;7.30;;;3.30;;
8327;SDS011;4201;48.754;8.864;2023-07-13T12:36:26;8.90;;;2.70;;
8327;SDS011;4201;48.754;8.864;2023-07-13T12:39:03;16.07;;;3.00;;
8327;SDS011;4201;48.754;8.864;2023-07-13T12:41:30;16.57;;;3.13;;
8327;SDS011;4201;48.754;8.864;2023-07-13T12:43:57;4.90;;;2.03;;
8327;SDS011;4201;48.754;8.864;2023-07-13T12:46:28;8.17;;;2.20;;
8327;SDS011;4201;48.754;8.864;2023-07-13T12:48:54;12.63;;;2.73;;
8327;SDS011;4201;48.754;8.864;2023-07-13T12:51:24;12.43;;;3.30;;
8327;SDS011;4201;48.754;8.864;2023-07-13T12:53:56;6.10;;;2.07;;
8327;SDS011;4201;48.754;8.864;2023-07-13T12:56:25;4.73;;;1.70;;
8327;SDS011;4201;48.754;8.864;2023-07-13T12:58:56;5.93;;;2.37;;
8327;SDS011;4201;48.754;8.864;2023-07-13T13:01:25;4.10;;;2.40;;
8327;SDS011;4201;48.754;8.864;2023-07-13T13:03:53;4.50;;;2.30;;
8327;SDS011;4201;48.754;8.864;2023-07-13T13:06:21;4.80;;;2.53;;
8327;SDS011;4201;48.754;8.864;2023-07-13T13:08:49;6.63;;;1.80;;
8327;SDS011;4201;48.754;8.864;2023-07-13T13:11:18;5.70;;;2.20;;
8327;SDS011;4201;48.754;8.864;2023-07-13T13:13:44;6.43;;;1.80;;
8327;SDS011;4201;48.754;8.864;2023-07-13T13:16:12;5.43;;;1.60;;
8327;SDS011;4201;48.754;8.864;2023-07-13T13:18:40;3.47;;;1.97;;
8327;SDS011;4201;48.754;8.864;2023-07-13T13:21:06;6.70;;;2.20;;
8327;SDS011;4201;48.754;8.864;2023-07-13T13:23:33;6.33;;;2.07;;
8327;SDS011;4201;48.754;8.864;2023-07-13T13:26:00;8.10;;;2.43;;
8327;SDS011;4201;48.754;8.864;2023-07-13T13:28:28;8.83;;;2.50;;
8327;SDS011;4201;48.754;8.864;2023-07-13T13:30:56;4.53;;;2.00;;
8327;SDS011;4201;48.754;8.864;2023-07-13T13:33:22;5.30;;;2.07;;
8327;SDS011;4201;48.754;8.864;2023-07-13T13:35:48;3.57;;;1.90;;
8327;SDS011;4201;48.754;8.864;2023-07-13T13:38:15;6.70;;;2.40;;
8327;SDS011;4201;48.754;8.864;2023-07-13T13:40:42;5.03;;;1.93;;
8327;SDS011;4201;48.754;8.864;2023-07-13T13:43:13;6.80;;;2.13;;
8327;SDS011;4201;48.754;8.864;2023-07-13T13:45:41;4.23;;;2.20;;
8327;SDS011;4201;48.754;8.864;2023-07-13T13:48:08;10.00;;;2.40;;
8327;SDS011;4201;48.754;8.864;2023-07-13T13:50:39;4.00;;;1.83;;
8327;SDS011;4201;48.754;8.864;2023-07-13T13:53:07;6.20;;;2.40;;
8327;SDS011;4201;48.754;8.864;2023-07-13T13:55:33;8.20;;;2.00;;
8327;SDS011;4201;48.754;8.864;2023-07-13T13:58:00;4.43;;;1.70;;
8327;SDS011;4201;48.754;8.864;2023-07-13T14:00:26;4.60;;;1.83;;
8327;SDS011;4201;48.754;8.864;2023-07-13T14:02:54;3.60;;;1.67;;
8327;SDS011;4201;48.754;8.864;2023-07-13T14:05:23;5.90;;;2.50;;
8327;SDS011;4201;48.754;8.864;2023-07-13T14:07:51;14.83;;;2.73;;
8327;SDS011;4201;48.754;8.864;2023-07-13T14:10:18;3.80;;;1.70;;
8327;SDS011;4201;48.754;8.864;2023-07-13T14:12:45;5.27;;;1.50;;
8327;SDS011;4201;48.754;8.864;2023-07-13T14:15:13;5.73;;;2.00;;
8327;SDS011;4201;48.754;8.864;2023-07-13T14:17:43;5.73;;;2.03;;
8327;SDS011;4201;48.754;8.864;2023-07-13T14:20:11;6.27;;;2.27;;
8327;SDS011;4201;48.754;8.864;2023-07-13T14:22:38;5.13;;;1.90;;
8327;SDS011;4201;48.754;8.864;2023-07-13T14:25:05;6.80;;;2.00;;
8327;SDS011;4201;48.754;8.864;2023-07-13T14:27:31;25.40;;;2.90;;
8327;SDS011;4201;48.754;8.864;2023-07-13T14:29:57;4.57;;;1.80;;
8327;SDS011;4201;48.754;8.864;2023-07-13T14:32:24;9.43;;;1.83;;
8327;SDS011;4201;48.754;8.864;2023-07-13T14:34:50;5.87;;;2.10;;
8327;SDS011;4201;48.754;8.864;2023-07-13T14:37:19;4.30;;;2.20;;
8327;SDS011;4201;48.754;8.864;2023-07-13T14:39:51;11.03;;;2.37;;
8327;SDS011;4201;48.754;8.864;2023-07-13T14:42:18;4.23;;;2.10;;
8327;SDS011;4201;48.754;8.864;2023-07-13T14:44:44;11.77;;;2.67;;
8327;SDS011;4201;48.754;8.864;2023-07-13T14:47:10;4.10;;;2.03;;
8327;SDS011;4201;48.754;8.864;2023-07-13T14:49:37;6.20;;;2.67;;
8327;SDS011;4201;48.754;8.864;2023-07-13T14:52:08;6.00;;;1.93;;
8327;SDS011;4201;48.754;8.864;2023-07-13T14:54:37;4.10;;;2.10;;
8327;SDS011;4201;48.754;8.864;2023-07-13T14:57:07;6.40;;;2.10;;
8327;SDS011;4201;48.754;8.864;2023-07-13T14:59:34;6.80;;;2.03;;
8327;SDS011;4201;48.754;8.864;2023-07-13T15:02:00;5.80;;;2.10;;
8327;SDS011;4201;48.754;8.864;2023-07-13T15:04:27;4.70;;;2.30;;
8327;SDS011;4201;48.754;8.864;2023-07-13T15:06:54;8.23;;;2.70;;
8327;SDS011;4201;48.754;8.864;2023-07-13T15:09:21;6.63;;;2.50;;
8327;SDS011;4201;48.754;8.864;2023-07-13T15:11:48;11.63;;;2.63;;
8327;SDS011;4201;48.754;8.864;2023-07-13T15:14:14;6.43;;;2.57;;
8327;SDS011;4201;48.754;8.864;2023-07-13T15:16:41;8.97;;;2.30;;
8327;SDS011;4201;48.754;8.864;2023-07-13T15:19:08;6.70;;;1.93;;
8327;SDS011;4201;48.754;8.864;2023-07-13T15:21:35;5.80;;;1.70;;
8327;SDS011;4201;48.754;8.864;2023-07-13T15:24:02;5.67;;;2.30;;
8327;SDS011;4201;48.754;8.864;2023-07-13T15:26:28;8.77;;;2.00;;